createdAt,value
2023-03-30T00:00:30.809Z,1374.00
2023-03-30T00:01:30.855Z,1375.00
2023-03-30T00:02:30.977Z,1380.00
2023-03-30T00:03:31.014Z,1385.00
2023-03-30T00:04:31.127Z,1391.00
2023-03-30T00:05:30.955Z,1390.00
2023-03-30T00:06:30.972Z,1378.00
2023-03-30T00:07:31.018Z,1378.00
2023-03-30T00:08:31.059Z,1374.00
2023-03-30T00:09:31.115Z,1387.00
2023-03-30T00:10:31.148Z,1379.00
2023-03-30T00:11:31.179Z,1355.00
2023-03-30T00:12:31.211Z,1345.00
2023-03-30T00:13:31.252Z,1333.00
2023-03-30T00:14:31.261Z,1328.00
2023-03-30T00:15:31.299Z,1371.00
2023-03-30T00:16:31.417Z,1380.00
2023-03-30T00:17:31.400Z,1391.00
2023-03-30T00:18:31.406Z,1349.00
2023-03-30T00:19:31.418Z,1359.00
2023-03-30T00:20:31.507Z,1392.00
2023-03-30T00:21:31.511Z,1395.00
2023-03-30T00:22:31.576Z,1404.00
2023-03-30T00:23:31.598Z,1360.00
2023-03-30T00:24:31.668Z,1336.00
2023-03-30T00:25:31.689Z,1302.00
2023-03-30T00:26:31.757Z,1280.00
2023-03-30T00:27:31.767Z,1274.00
2023-03-30T00:28:31.792Z,1236.00
2023-03-30T00:29:31.801Z,1250.00
2023-03-30T00:30:31.840Z,1241.00
2023-03-30T00:31:31.912Z,1239.00
2023-03-30T00:32:31.938Z,1251.00
2023-03-30T00:33:44.023Z,1241.00
2023-03-30T00:34:32.930Z,1243.00
2023-03-30T00:35:31.936Z,1246.00
2023-03-30T00:36:31.895Z,1252.00
2023-03-30T00:37:31.903Z,1252.00
2023-03-30T00:38:31.889Z,1265.00
2023-03-30T00:39:31.894Z,1272.00
2023-03-30T00:40:31.886Z,1272.00
2023-03-30T00:41:31.886Z,1283.00
2023-03-30T00:42:31.863Z,1278.00
2023-03-30T00:43:31.860Z,1284.00
2023-03-30T00:44:31.883Z,1281.00
2023-03-30T00:45:31.828Z,1300.00
2023-03-30T00:46:31.980Z,1286.00
2023-03-30T00:47:31.844Z,1293.00
2023-03-30T00:48:31.848Z,1292.00
2023-03-30T00:49:31.857Z,1313.00
2023-03-30T00:50:31.882Z,1341.00
2023-03-30T00:51:31.913Z,1388.00
2023-03-30T00:52:31.944Z,1393.00
2023-03-30T00:53:32.009Z,1392.00
2023-03-30T00:54:31.985Z,1369.00
2023-03-30T00:55:32.020Z,1358.00
2023-03-30T00:56:32.050Z,1320.00
2023-03-30T00:57:32.072Z,1323.00
2023-03-30T00:58:32.176Z,1304.00
2023-03-30T00:59:32.126Z,1321.00
2023-03-30T01:00:32.152Z,1315.00
2023-03-30T01:01:32.183Z,1320.00
2023-03-30T01:02:32.229Z,1318.00
2023-03-30T01:03:32.287Z,1322.00
2023-03-30T01:04:32.260Z,1342.00
2023-03-30T01:05:32.305Z,1343.00
2023-03-30T01:06:32.343Z,1326.00
2023-03-30T01:07:32.356Z,1338.00
2023-03-30T01:08:32.418Z,1328.00
2023-03-30T01:09:32.407Z,1311.00
2023-03-30T01:10:32.430Z,1320.00
2023-03-30T01:11:32.482Z,1316.00
2023-03-30T01:12:32.497Z,1321.00
2023-03-30T01:13:32.540Z,1344.00
2023-03-30T01:14:32.584Z,1327.00
2023-03-30T01:15:32.648Z,1333.00
2023-03-30T01:16:32.630Z,1335.00
2023-03-30T01:17:32.692Z,1308.00
2023-03-30T01:18:32.686Z,1308.00
2023-03-30T01:19:32.713Z,1306.00
2023-03-30T01:20:32.760Z,1291.00
2023-03-30T01:21:32.801Z,1293.00
2023-03-30T01:22:32.810Z,1286.00
2023-03-30T01:23:32.854Z,1279.00
2023-03-30T01:24:32.891Z,1275.00
2023-03-30T01:25:32.915Z,1274.00
2023-03-30T01:26:32.935Z,1264.00
2023-03-30T01:27:32.981Z,1282.00
2023-03-30T01:28:33.035Z,1298.00
2023-03-30T01:29:33.109Z,1325.00
2023-03-30T01:30:33.104Z,1320.00
2023-03-30T01:31:33.165Z,1251.00
2023-03-30T01:32:33.194Z,1241.00
2023-03-30T01:33:33.190Z,1230.00
2023-03-30T01:34:33.220Z,1210.00
2023-03-30T01:35:33.410Z,1205.00
2023-03-30T01:36:33.316Z,1215.00
2023-03-30T01:37:33.338Z,1228.00
2023-03-30T01:38:33.377Z,1225.00
2023-03-30T01:39:33.420Z,1251.00
2023-03-30T01:40:33.470Z,1241.00
2023-03-30T01:41:33.487Z,1255.00
2023-03-30T01:42:33.501Z,1264.00
2023-03-30T01:43:33.551Z,1272.00
2023-03-30T01:44:33.567Z,1292.00
2023-03-30T01:45:33.610Z,1292.00
2023-03-30T01:46:33.739Z,1311.00
2023-03-30T01:47:33.686Z,1312.00
2023-03-30T01:48:33.696Z,1305.00
2023-03-30T01:49:33.760Z,1331.00
2023-03-30T01:50:33.781Z,1301.00
2023-03-30T01:51:33.834Z,1307.00
2023-03-30T01:52:33.853Z,1308.00
2023-03-30T01:53:33.905Z,1316.00
2023-03-30T01:54:33.920Z,1323.00
2023-03-30T01:55:33.943Z,1333.00
2023-03-30T01:56:33.944Z,1319.00
2023-03-30T01:57:33.985Z,1335.00
2023-03-30T01:58:33.998Z,1324.00
2023-03-30T01:59:34.024Z,1317.00
2023-03-30T02:00:34.045Z,1312.00
2023-03-30T02:01:34.088Z,1303.00
2023-03-30T02:02:34.165Z,1291.00
2023-03-30T02:03:34.278Z,1273.00
2023-03-30T02:04:34.184Z,1280.00
2023-03-30T02:05:34.215Z,1254.00
2023-03-30T02:06:34.271Z,1251.00
2023-03-30T02:07:34.286Z,1234.00
2023-03-30T02:08:34.332Z,1247.00
2023-03-30T02:09:34.368Z,1225.00
2023-03-30T02:10:34.399Z,1247.00
2023-03-30T02:11:34.422Z,1230.00
2023-03-30T02:12:34.464Z,1231.00
2023-03-30T02:13:34.540Z,1212.00
2023-03-30T02:14:34.536Z,1273.00
2023-03-30T02:15:34.569Z,1278.00
2023-03-30T02:16:34.631Z,1265.00
2023-03-30T02:17:34.657Z,1271.00
2023-03-30T02:18:34.620Z,1265.00
2023-03-30T02:19:34.659Z,1261.00
2023-03-30T02:20:34.669Z,1260.00
2023-03-30T02:21:34.715Z,1219.00
2023-03-30T02:22:34.755Z,1183.00
2023-03-30T02:23:34.800Z,1156.00
2023-03-30T02:24:34.845Z,1149.00
2023-03-30T02:25:34.868Z,1109.00
2023-03-30T02:26:34.904Z,1102.00
2023-03-30T02:27:34.951Z,1086.00
2023-03-30T02:28:34.981Z,1069.00
2023-03-30T02:29:35.003Z,1122.00
2023-03-30T02:30:35.056Z,1205.00
2023-03-30T02:31:35.163Z,1250.00
2023-03-30T02:32:35.147Z,1296.00
2023-03-30T02:33:35.132Z,1310.00
2023-03-30T02:34:35.204Z,1255.00
2023-03-30T02:35:35.229Z,1157.00
2023-03-30T02:36:35.239Z,1114.00
2023-03-30T02:37:35.256Z,1073.00
2023-03-30T02:38:35.294Z,1048.00
2023-03-30T02:39:35.348Z,1080.00
2023-03-30T02:40:35.341Z,1110.00
2023-03-30T02:41:35.366Z,1137.00
2023-03-30T02:42:35.418Z,1153.00
2023-03-30T02:43:35.461Z,1162.00
2023-03-30T02:44:35.515Z,1175.00
2023-03-30T02:45:35.568Z,1181.00
2023-03-30T02:46:35.588Z,1210.00
2023-03-30T02:47:35.643Z,1187.00
2023-03-30T02:48:35.652Z,1166.00
2023-03-30T02:49:35.709Z,1157.00
2023-03-30T02:50:35.685Z,1150.00
2023-03-30T02:51:35.745Z,1124.00
2023-03-30T02:52:35.780Z,1106.00
2023-03-30T02:53:35.838Z,1047.00
2023-03-30T02:54:35.860Z,1018.00
2023-03-30T02:55:35.892Z,1015.00
2023-03-30T02:56:35.890Z,1016.00
2023-03-30T02:57:35.939Z,1076.00
2023-03-30T02:58:35.954Z,1107.00
2023-03-30T02:59:35.991Z,1160.00
2023-03-30T03:00:36.056Z,1147.00
2023-03-30T03:01:36.104Z,1172.00
2023-03-30T03:02:36.189Z,1164.00
2023-03-30T03:03:36.351Z,1160.00
2023-03-30T03:04:36.194Z,1188.00
2023-03-30T03:05:36.217Z,1217.00
2023-03-30T03:06:36.231Z,1232.00
2023-03-30T03:07:36.281Z,1240.00
2023-03-30T03:08:36.312Z,1241.00
2023-03-30T03:09:36.362Z,1244.00
2023-03-30T03:10:36.440Z,1227.00
2023-03-30T03:11:36.406Z,1242.00
2023-03-30T03:12:36.454Z,1247.00
2023-03-30T03:13:36.478Z,1249.00
2023-03-30T03:14:36.528Z,1248.00
2023-03-30T03:15:36.569Z,1248.00
2023-03-30T03:16:36.623Z,1236.00
2023-03-30T03:17:36.678Z,1256.00
2023-03-30T03:18:36.659Z,1243.00
2023-03-30T03:19:36.687Z,1249.00
2023-03-30T03:20:36.728Z,1259.00
2023-03-30T03:21:36.769Z,1251.00
2023-03-30T03:22:36.793Z,1243.00
2023-03-30T03:23:36.822Z,1245.00
2023-03-30T03:24:36.834Z,1245.00
2023-03-30T03:25:36.860Z,1262.00
2023-03-30T03:26:36.883Z,1231.00
2023-03-30T03:27:36.927Z,1233.00
2023-03-30T03:28:36.973Z,1239.00
2023-03-30T03:29:37.000Z,1235.00
2023-03-30T03:30:37.059Z,1216.00
2023-03-30T03:31:37.144Z,1206.00
2023-03-30T03:32:37.120Z,1236.00
2023-03-30T03:33:37.119Z,1228.00
2023-03-30T03:34:37.233Z,1234.00
2023-03-30T03:35:37.272Z,1233.00
2023-03-30T03:36:37.243Z,1234.00
2023-03-30T03:37:37.274Z,1240.00
2023-03-30T03:38:37.282Z,1197.00
2023-03-30T03:39:37.336Z,1195.00
2023-03-30T03:40:37.915Z,1189.00
2023-03-30T03:41:37.409Z,1185.00
2023-03-30T03:42:37.445Z,1180.00
2023-03-30T03:43:37.471Z,1185.00
2023-03-30T03:44:37.513Z,1184.00
2023-03-30T03:45:37.545Z,1175.00
2023-03-30T03:46:37.608Z,1151.00
2023-03-30T03:47:37.729Z,1138.00
2023-03-30T03:48:37.633Z,1125.00
2023-03-30T03:49:37.681Z,1134.00
2023-03-30T03:50:37.733Z,1121.00
2023-03-30T03:51:37.742Z,1113.00
2023-03-30T03:52:37.782Z,1120.00
2023-03-30T03:53:37.828Z,1102.00
2023-03-30T03:54:37.853Z,1114.00
2023-03-30T03:55:37.864Z,1128.00
2023-03-30T03:56:37.937Z,1126.00
2023-03-30T03:57:37.925Z,1121.00
2023-03-30T03:58:37.997Z,1110.00
2023-03-30T03:59:37.994Z,1110.00
2023-03-30T04:00:38.123Z,1095.00
2023-03-30T04:01:38.109Z,1063.00
2023-03-30T04:02:38.211Z,1040.00
2023-03-30T04:03:38.132Z,1026.00
2023-03-30T04:04:38.219Z,1037.00
2023-03-30T04:05:38.209Z,1058.00
2023-03-30T04:06:38.240Z,1077.00
2023-03-30T04:07:38.322Z,1076.00
2023-03-30T04:08:38.344Z,1061.00
2023-03-30T04:09:38.364Z,1076.00
2023-03-30T04:10:38.390Z,1095.00
2023-03-30T04:11:38.441Z,1087.00
2023-03-30T04:12:38.466Z,1110.00
2023-03-30T04:13:38.492Z,1089.00
2023-03-30T04:14:38.539Z,1097.00
2023-03-30T04:15:38.563Z,1104.00
2023-03-30T04:16:38.625Z,1070.00
2023-03-30T04:17:38.701Z,1090.00
2023-03-30T04:18:38.650Z,1103.00
2023-03-30T04:19:38.691Z,1116.00
2023-03-30T04:20:38.722Z,1125.00
2023-03-30T04:21:38.773Z,1138.00
2023-03-30T04:22:38.798Z,1152.00
2023-03-30T04:23:38.853Z,1157.00
2023-03-30T04:24:38.885Z,1167.00
2023-03-30T04:25:38.898Z,1179.00
2023-03-30T04:26:38.922Z,1179.00
2023-03-30T04:27:38.944Z,1187.00
2023-03-30T04:28:38.984Z,1163.00
2023-03-30T04:29:39.008Z,1166.00
2023-03-30T04:30:39.014Z,1173.00
2023-03-30T04:31:39.061Z,1153.00
2023-03-30T04:32:39.198Z,1160.00
2023-03-30T04:33:39.107Z,1153.00
2023-03-30T04:34:39.124Z,1163.00
2023-03-30T04:35:39.203Z,1157.00
2023-03-30T04:36:39.234Z,1154.00
2023-03-30T04:37:39.243Z,1146.00
2023-03-30T04:38:39.269Z,1153.00
2023-03-30T04:39:39.285Z,1157.00
2023-03-30T04:40:39.307Z,1163.00
2023-03-30T04:41:39.380Z,1172.00
2023-03-30T04:42:39.425Z,1175.00
2023-03-30T04:43:39.434Z,1160.00
2023-03-30T04:44:39.467Z,1181.00
2023-03-30T04:45:39.513Z,1181.00
2023-03-30T04:46:39.506Z,1184.00
2023-03-30T04:47:39.580Z,1169.00
2023-03-30T04:48:39.567Z,1183.00
2023-03-30T04:49:39.596Z,1156.00
2023-03-30T04:50:39.683Z,1157.00
2023-03-30T04:51:39.716Z,1185.00
2023-03-30T04:52:39.714Z,1175.00
2023-03-30T04:53:39.737Z,1185.00
2023-03-30T04:54:39.762Z,1179.00
2023-03-30T04:55:39.792Z,1177.00
2023-03-30T04:56:39.821Z,1160.00
2023-03-30T04:57:39.847Z,1172.00
2023-03-30T04:58:39.890Z,1173.00
2023-03-30T04:59:39.920Z,1186.00
2023-03-30T05:00:39.943Z,1188.00
2023-03-30T05:01:40.004Z,1180.00
2023-03-30T05:02:40.090Z,1180.00
2023-03-30T05:03:40.081Z,1188.00
2023-03-30T05:04:40.057Z,1160.00
2023-03-30T05:05:40.102Z,1156.00
2023-03-30T05:06:40.160Z,1158.00
2023-03-30T05:07:40.153Z,1165.00
2023-03-30T05:08:41.886Z,1169.00
2023-03-30T05:09:40.233Z,1131.00
2023-03-30T05:10:40.244Z,1146.00
2023-03-30T05:11:40.265Z,1172.00
2023-03-30T05:12:40.319Z,1183.00
2023-03-30T05:13:40.344Z,1194.00
2023-03-30T05:14:40.354Z,1170.00
2023-03-30T05:15:40.368Z,1190.00
2023-03-30T05:16:40.457Z,1191.00
2023-03-30T05:17:40.484Z,1182.00
2023-03-30T05:18:40.515Z,1186.00
2023-03-30T05:19:40.536Z,1179.00
2023-03-30T05:20:40.581Z,1189.00
2023-03-30T05:21:40.647Z,1169.00
2023-03-30T05:22:40.646Z,1180.00
2023-03-30T05:23:40.684Z,1171.00
2023-03-30T05:24:40.704Z,1173.00
2023-03-30T05:25:40.755Z,1175.00
2023-03-30T05:26:40.842Z,1168.00
2023-03-30T05:27:40.809Z,1165.00
2023-03-30T05:28:40.862Z,1214.00
2023-03-30T05:29:40.892Z,1249.00
2023-03-30T05:30:40.933Z,1232.00
2023-03-30T05:31:41.013Z,1260.00
2023-03-30T05:32:41.044Z,1264.00
2023-03-30T05:33:43.438Z,1317.00
2023-03-30T05:34:41.018Z,1340.00
2023-03-30T05:35:41.058Z,1396.00
2023-03-30T05:36:41.029Z,1391.00
2023-03-30T05:37:41.002Z,1419.00
2023-03-30T05:38:41.030Z,1443.00
2023-03-30T05:39:40.986Z,1500.00
2023-03-30T05:40:41.001Z,1502.00
2023-03-30T05:41:40.967Z,1513.00
2023-03-30T05:42:40.968Z,1539.00
2023-03-30T05:43:40.967Z,1566.00
2023-03-30T05:44:40.974Z,1589.00
2023-03-30T05:45:40.929Z,1619.00
2023-03-30T05:46:40.985Z,1652.00
2023-03-30T05:47:40.940Z,1671.00
2023-03-30T05:48:40.912Z,1704.00
2023-03-30T05:49:40.908Z,1684.00
2023-03-30T05:50:40.894Z,1681.00
2023-03-30T05:51:40.892Z,1651.00
2023-03-30T05:52:40.871Z,1651.00
2023-03-30T05:53:40.868Z,1700.00
2023-03-30T05:54:40.882Z,1731.00
2023-03-30T05:55:40.853Z,1751.00
2023-03-30T05:56:40.916Z,1781.00
2023-03-30T05:57:40.846Z,1792.00
2023-03-30T05:58:40.852Z,1822.00
2023-03-30T05:59:40.996Z,1830.00
2023-03-30T06:00:40.815Z,1835.00
2023-03-30T06:01:40.824Z,1870.00
2023-03-30T06:02:40.918Z,1885.00
2023-03-30T06:03:41.030Z,1849.00
2023-03-30T06:04:40.849Z,1855.00
2023-03-30T06:05:40.808Z,1873.00
2023-03-30T06:06:40.788Z,1896.00
2023-03-30T06:07:40.784Z,1915.00
2023-03-30T06:08:40.788Z,1915.00
2023-03-30T06:09:40.760Z,1931.00
2023-03-30T06:10:40.804Z,1921.00
2023-03-30T06:11:40.776Z,1932.00
2023-03-30T06:12:40.760Z,1929.00
2023-03-30T06:13:40.739Z,1943.00
2023-03-30T06:14:40.721Z,1941.00
2023-03-30T06:15:40.728Z,1937.00
2023-03-30T06:16:40.742Z,1943.00
2023-03-30T06:17:41.004Z,1935.00
2023-03-30T06:18:40.729Z,1935.00
2023-03-30T06:19:40.687Z,1921.00
2023-03-30T06:20:40.976Z,1943.00
2023-03-30T06:21:40.688Z,1945.00
2023-03-30T06:22:40.663Z,1903.00
2023-03-30T06:23:40.682Z,1915.00
2023-03-30T06:24:40.718Z,1876.00
2023-03-30T06:25:40.673Z,1844.00
2023-03-30T06:26:40.645Z,1831.00
2023-03-30T06:27:43.434Z,1830.00
2023-03-30T06:28:40.632Z,1831.00
2023-03-30T06:29:40.639Z,1832.00
2023-03-30T06:30:40.598Z,1839.00
2023-03-30T06:31:40.715Z,1832.00
2023-03-30T06:32:41.489Z,1723.00
2023-03-30T06:33:41.881Z,1777.00
2023-03-30T06:34:40.578Z,1765.00
2023-03-30T06:35:41.063Z,1729.00
2023-03-30T06:36:45.069Z,1720.00
2023-03-30T06:37:41.565Z,1721.00
2023-03-30T06:38:40.555Z,1683.00
2023-03-30T06:39:40.548Z,1709.00
2023-03-30T06:40:40.967Z,1728.00
2023-03-30T06:41:40.545Z,1719.00
2023-03-30T06:42:40.530Z,1698.00
2023-03-30T06:43:40.533Z,1687.00
2023-03-30T06:44:40.516Z,1670.00
2023-03-30T06:45:40.548Z,1618.00
2023-03-30T06:46:40.492Z,1639.00
2023-03-30T06:47:40.985Z,1636.00
2023-03-30T06:48:40.497Z,1585.00
2023-03-30T06:49:40.485Z,1574.00
2023-03-30T06:50:40.996Z,1574.00
2023-03-30T06:51:40.582Z,1584.00
2023-03-30T06:52:40.652Z,1542.00
2023-03-30T06:53:40.656Z,1541.00
2023-03-30T06:54:40.718Z,1519.00
2023-03-30T06:55:40.769Z,1593.00
2023-03-30T06:56:40.878Z,1573.00
2023-03-30T06:57:40.853Z,1553.00
2023-03-30T06:58:40.905Z,1532.00
2023-03-30T06:59:40.947Z,1527.00
2023-03-30T07:00:41.004Z,1440.00
2023-03-30T07:01:41.159Z,1456.00
2023-03-30T07:02:41.110Z,1443.00
2023-03-30T07:03:41.508Z,1423.00
2023-03-30T07:04:41.163Z,1389.00
2023-03-30T07:05:41.141Z,1352.00
2023-03-30T07:06:41.170Z,1355.00
2023-03-30T07:07:41.243Z,1303.00
2023-03-30T07:08:41.559Z,1267.00
2023-03-30T07:09:41.349Z,1243.00
2023-03-30T07:10:41.383Z,1257.00
2023-03-30T07:11:41.488Z,1241.00
2023-03-30T07:12:41.467Z,1206.00
2023-03-30T07:13:42.007Z,1232.00
2023-03-30T07:14:41.524Z,1289.00
2023-03-30T07:15:41.588Z,1349.00
2023-03-30T07:16:41.678Z,1353.00
2023-03-30T07:17:41.656Z,1321.00
2023-03-30T07:18:41.705Z,1323.00
2023-03-30T07:19:41.716Z,1340.00
2023-03-30T07:20:41.732Z,1361.00
2023-03-30T07:21:41.754Z,1295.00
2023-03-30T07:22:41.832Z,1275.00
2023-03-30T07:23:41.824Z,1259.00
2023-03-30T07:24:41.823Z,1256.00
2023-03-30T07:25:41.850Z,1286.00
2023-03-30T07:26:42.068Z,1314.00
2023-03-30T07:27:41.899Z,1388.00
2023-03-30T07:28:41.887Z,1416.00
2023-03-30T07:29:41.917Z,1431.00
2023-03-30T07:30:42.008Z,1427.00
2023-03-30T07:31:42.539Z,1476.00
2023-03-30T07:32:42.060Z,1465.00
2023-03-30T07:33:42.518Z,1471.00
2023-03-30T07:34:42.079Z,1497.00
2023-03-30T07:35:42.081Z,1509.00
2023-03-30T07:36:42.095Z,1556.00
2023-03-30T07:37:42.095Z,1521.00
2023-03-30T07:38:42.180Z,1517.00
2023-03-30T07:39:42.188Z,1531.00
2023-03-30T07:40:42.271Z,1540.00
2023-03-30T07:41:42.254Z,1568.00
2023-03-30T07:42:42.297Z,1510.00
2023-03-30T07:43:42.339Z,1525.00
2023-03-30T07:44:42.373Z,1490.00
2023-03-30T07:45:42.413Z,1503.00
2023-03-30T07:46:42.509Z,1502.00
2023-03-30T07:47:42.499Z,1474.00
2023-03-30T07:48:42.549Z,1478.00
2023-03-30T07:49:42.560Z,1476.00
2023-03-30T07:50:42.630Z,1490.00
2023-03-30T07:51:42.658Z,1509.00
2023-03-30T07:52:42.705Z,1526.00
2023-03-30T07:53:42.714Z,1538.00
2023-03-30T07:54:42.714Z,1530.00
2023-03-30T07:55:42.747Z,1539.00
2023-03-30T07:56:42.837Z,1538.00
2023-03-30T07:57:42.805Z,1532.00
2023-03-30T07:58:42.811Z,1541.00
2023-03-30T07:59:42.873Z,1543.00
2023-03-30T08:00:42.850Z,1545.00
2023-03-30T08:01:42.884Z,1566.00
2023-03-30T08:02:43.071Z,1594.00
2023-03-30T08:03:42.930Z,1584.00
2023-03-30T08:04:43.140Z,1611.00
2023-03-30T08:05:43.004Z,1610.00
2023-03-30T08:06:43.006Z,1617.00
2023-03-30T08:07:43.027Z,1623.00
2023-03-30T08:08:43.076Z,1633.00
2023-03-30T08:09:43.105Z,1618.00
2023-03-30T08:10:43.137Z,1627.00
2023-03-30T08:11:43.159Z,1625.00
2023-03-30T08:12:43.194Z,1622.00
2023-03-30T08:13:43.242Z,1640.00
2023-03-30T08:14:43.274Z,1623.00
2023-03-30T08:15:43.363Z,1644.00
2023-03-30T08:16:43.350Z,1633.00
2023-03-30T08:17:43.430Z,1629.00
2023-03-30T08:18:43.436Z,1624.00
2023-03-30T08:19:43.459Z,1634.00
2023-03-30T08:20:43.547Z,1630.00
2023-03-30T08:21:43.530Z,1679.00
2023-03-30T08:22:43.566Z,1705.00
2023-03-30T08:23:43.613Z,1641.00
2023-03-30T08:24:43.641Z,1563.00
2023-03-30T08:25:45.981Z,1558.00
2023-03-30T08:26:43.688Z,1522.00
2023-03-30T08:27:43.676Z,1450.00
2023-03-30T08:28:43.648Z,1409.00
2023-03-30T08:29:43.635Z,1352.00
2023-03-30T08:30:43.638Z,1319.00
2023-03-30T08:31:43.736Z,1293.00
2023-03-30T08:32:43.672Z,1257.00
2023-03-30T08:33:43.630Z,1264.00
2023-03-30T08:34:43.603Z,1233.00
2023-03-30T08:35:43.646Z,1191.00
2023-03-30T08:36:43.617Z,1193.00
2023-03-30T08:37:43.589Z,1332.00
2023-03-30T08:38:43.579Z,1373.00
2023-03-30T08:39:43.625Z,1282.00
2023-03-30T08:40:43.579Z,1252.00
2023-03-30T08:41:43.546Z,1247.00
2023-03-30T08:42:43.559Z,1239.00
2023-03-30T08:43:43.541Z,1242.00
2023-03-30T08:44:43.563Z,1196.00
2023-03-30T08:45:43.568Z,1197.00
2023-03-30T08:46:43.529Z,1183.00
2023-03-30T08:47:43.507Z,1170.00
2023-03-30T08:48:43.495Z,1155.00
2023-03-30T08:49:43.527Z,1131.00
2023-03-30T08:50:43.479Z,1116.00
2023-03-30T08:51:43.492Z,1142.00
2023-03-30T08:52:43.466Z,1158.00
2023-03-30T08:53:43.465Z,1166.00
2023-03-30T08:54:43.444Z,1215.00
2023-03-30T08:55:43.444Z,1177.00
2023-03-30T08:56:43.449Z,1175.00
2023-03-30T08:57:43.448Z,1162.00
2023-03-30T08:58:43.431Z,1145.00
2023-03-30T08:59:43.422Z,1171.00
2023-03-30T09:00:43.548Z,1172.00
2023-03-30T09:01:43.459Z,1179.00
2023-03-30T09:02:43.428Z,1154.00
2023-03-30T09:03:43.367Z,1148.00
2023-03-30T09:04:43.438Z,1122.00
2023-03-30T09:05:43.537Z,1091.00
2023-03-30T09:06:43.372Z,1092.00
2023-03-30T09:07:43.396Z,1092.00
2023-03-30T09:08:43.344Z,1113.00
2023-03-30T09:09:43.350Z,1109.00
2023-03-30T09:10:43.536Z,1115.00
2023-03-30T09:11:43.346Z,1124.00
2023-03-30T09:12:43.340Z,1140.00
2023-03-30T09:13:43.325Z,1117.00
2023-03-30T09:14:43.327Z,1090.00
2023-03-30T09:15:43.556Z,1093.00
2023-03-30T09:16:43.390Z,1115.00
2023-03-30T09:17:43.413Z,1142.00
2023-03-30T09:18:43.453Z,1115.00
2023-03-30T09:19:43.467Z,1150.00
2023-03-30T09:20:45.914Z,1136.00
2023-03-30T09:21:43.728Z,1119.00
2023-03-30T09:22:43.725Z,1097.00
2023-03-30T09:23:43.774Z,1105.00
2023-03-30T09:24:43.808Z,1107.00
2023-03-30T09:25:43.831Z,1138.00
2023-03-30T09:26:44.073Z,1231.00
2023-03-30T09:27:43.909Z,1093.00
2023-03-30T09:28:43.981Z,1052.00
2023-03-30T09:29:44.020Z,993.00
2023-03-30T09:30:44.555Z,953.00
2023-03-30T09:31:44.151Z,917.00
2023-03-30T09:32:44.154Z,900.00
2023-03-30T09:33:44.195Z,846.00
2023-03-30T09:34:44.180Z,814.00
2023-03-30T09:35:44.227Z,809.00
2023-03-30T09:36:44.568Z,831.00
2023-03-30T09:37:44.262Z,858.00
2023-03-30T09:38:44.284Z,817.00
2023-03-30T09:39:44.303Z,841.00
2023-03-30T09:40:44.306Z,943.00
2023-03-30T09:41:44.555Z,1053.00
2023-03-30T09:42:44.391Z,1191.00
2023-03-30T09:43:44.438Z,1238.00
2023-03-30T09:44:44.466Z,1292.00
2023-03-30T09:45:44.529Z,1349.00
2023-03-30T09:46:44.582Z,1342.00
2023-03-30T09:47:44.595Z,1264.00
2023-03-30T09:48:44.618Z,1218.00
2023-03-30T09:49:44.661Z,1236.00
2023-03-30T09:50:44.721Z,1243.00
2023-03-30T09:51:44.767Z,1228.00
2023-03-30T09:52:44.796Z,1219.00
2023-03-30T09:53:44.844Z,1251.00
2023-03-30T09:54:44.890Z,1274.00
2023-03-30T09:55:44.920Z,1295.00
2023-03-30T09:56:45.014Z,1310.00
2023-03-30T09:57:44.989Z,1294.00
2023-03-30T09:58:45.004Z,1310.00
2023-03-30T09:59:45.031Z,1315.00
2023-03-30T10:00:45.027Z,1295.00
2023-03-30T10:01:45.094Z,1296.00
2023-03-30T10:02:45.092Z,1302.00
2023-03-30T10:03:45.303Z,1290.00
2023-03-30T10:04:45.117Z,1296.00
2023-03-30T10:05:45.105Z,1308.00
2023-03-30T10:06:45.181Z,1319.00
2023-03-30T10:07:45.240Z,1315.00
2023-03-30T10:08:45.242Z,1319.00
2023-03-30T10:09:45.252Z,1309.00
2023-03-30T10:10:45.296Z,1308.00
2023-03-30T10:11:45.332Z,1309.00
2023-03-30T10:12:45.363Z,1298.00
2023-03-30T10:13:45.407Z,1284.00
2023-03-30T10:14:45.449Z,1299.00
2023-03-30T10:15:45.482Z,1280.00
2023-03-30T10:16:45.488Z,1271.00
2023-03-30T10:17:45.628Z,1272.00
2023-03-30T10:18:45.578Z,1266.00
2023-03-30T10:19:48.620Z,1254.00
2023-03-30T10:20:46.584Z,1255.00
2023-03-30T10:21:45.603Z,1257.00
2023-03-30T10:22:45.538Z,1257.00
2023-03-30T10:23:45.547Z,1253.00
2023-03-30T10:24:45.509Z,1262.00
2023-03-30T10:25:45.566Z,1241.00
2023-03-30T10:26:45.631Z,1242.00
2023-03-30T10:27:45.519Z,1235.00
2023-03-30T10:28:45.481Z,1219.00
2023-03-30T10:29:45.491Z,1221.00
2023-03-30T10:30:45.457Z,1236.00
2023-03-30T10:31:45.518Z,1229.00
2023-03-30T10:32:45.493Z,1223.00
2023-03-30T10:33:45.475Z,1221.00
2023-03-30T10:34:45.490Z,1218.00
2023-03-30T10:35:45.523Z,1216.00
2023-03-30T10:36:46.651Z,1218.00
2023-03-30T10:37:45.511Z,1226.00
2023-03-30T10:38:45.518Z,1213.00
2023-03-30T10:39:45.526Z,1196.00
2023-03-30T10:40:45.487Z,1200.00
2023-03-30T10:41:45.476Z,1195.00
2023-03-30T10:42:45.477Z,1194.00
2023-03-30T10:43:45.481Z,1192.00
2023-03-30T10:44:45.471Z,1191.00
2023-03-30T10:45:45.493Z,1194.00
2023-03-30T10:46:45.503Z,1184.00
2023-03-30T10:47:45.566Z,1186.00
2023-03-30T10:48:45.448Z,1182.00
2023-03-30T10:49:45.459Z,1168.00
2023-03-30T10:50:45.503Z,1170.00
2023-03-30T10:51:45.433Z,1166.00
2023-03-30T10:52:56.034Z,1166.00
2023-03-30T10:53:46.413Z,1168.00
2023-03-30T10:54:45.397Z,1168.00
2023-03-30T10:55:45.389Z,1163.00
2023-03-30T10:56:45.607Z,1148.00
2023-03-30T10:57:45.426Z,1147.00
2023-03-30T10:58:45.402Z,1145.00
2023-03-30T10:59:45.384Z,1131.00
2023-03-30T11:00:45.410Z,1132.00
2023-03-30T11:01:45.364Z,1129.00
2023-03-30T11:02:45.504Z,1136.00
2023-03-30T11:03:45.747Z,1120.00
2023-03-30T11:04:45.348Z,1127.00
2023-03-30T11:05:45.338Z,1117.00
2023-03-30T11:06:45.594Z,1093.00
2023-03-30T11:07:45.313Z,1101.00
2023-03-30T11:08:45.444Z,1103.00
2023-03-30T11:09:45.325Z,1105.00
2023-03-30T11:10:45.330Z,1101.00
2023-03-30T11:11:45.583Z,1091.00
2023-03-30T11:12:45.587Z,1087.00
2023-03-30T11:13:45.466Z,1074.00
2023-03-30T11:14:45.425Z,1072.00
2023-03-30T11:15:45.399Z,1075.00
2023-03-30T11:16:45.456Z,1088.00
2023-03-30T11:17:45.728Z,1098.00
2023-03-30T11:18:45.495Z,1094.00
2023-03-30T11:19:45.495Z,1100.00
2023-03-30T11:20:45.544Z,1092.00
2023-03-30T11:21:45.565Z,1089.00
2023-03-30T11:22:46.098Z,1074.00
2023-03-30T11:23:45.618Z,1075.00
2023-03-30T11:24:45.655Z,1064.00
2023-03-30T11:25:45.693Z,1072.00
2023-03-30T11:26:45.713Z,1065.00
2023-03-30T11:27:46.148Z,1064.00
2023-03-30T11:28:46.157Z,1057.00
2023-03-30T11:29:45.790Z,1045.00
2023-03-30T11:30:45.842Z,1048.00
2023-03-30T11:31:45.927Z,1051.00
2023-03-30T11:32:45.918Z,1058.00
2023-03-30T11:33:46.810Z,1060.00
2023-03-30T11:34:45.981Z,1034.00
2023-03-30T11:35:46.060Z,1028.00
2023-03-30T11:36:46.047Z,1013.00
2023-03-30T11:37:46.103Z,1003.00
2023-03-30T11:38:46.119Z,988.00
2023-03-30T11:39:46.139Z,979.00
2023-03-30T11:40:46.256Z,970.00
2023-03-30T11:41:46.248Z,940.00
2023-03-30T11:42:46.321Z,958.00
2023-03-30T11:43:46.303Z,965.00
2023-03-30T11:44:46.349Z,971.00
2023-03-30T11:45:46.454Z,958.00
2023-03-30T11:46:46.447Z,967.00
2023-03-30T11:47:46.498Z,972.00
2023-03-30T11:48:46.589Z,977.00
2023-03-30T11:49:46.508Z,960.00
2023-03-30T11:50:46.528Z,972.00
2023-03-30T11:51:46.536Z,970.00
2023-03-30T11:52:46.562Z,962.00
2023-03-30T11:53:46.546Z,946.00
2023-03-30T11:54:59.803Z,924.00
2023-03-30T11:55:47.576Z,925.00
2023-03-30T11:56:47.601Z,928.00
2023-03-30T11:57:46.544Z,927.00
2023-03-30T11:58:46.553Z,927.00
2023-03-30T11:59:46.772Z,944.00
2023-03-30T12:00:46.525Z,956.00
2023-03-30T12:01:46.524Z,926.00
2023-03-30T12:02:46.693Z,926.00
2023-03-30T12:03:46.820Z,922.00
2023-03-30T12:04:46.550Z,912.00
2023-03-30T12:05:46.496Z,905.00
2023-03-30T12:06:46.509Z,897.00
2023-03-30T12:07:46.471Z,910.00